createdAt,value
2023-02-11T11:43:23.026Z,41.62
2023-02-11T11:46:00.010Z,38.72
2023-02-11T11:48:33.019Z,37.41
2023-02-11T11:51:04.085Z,36.88
2023-02-11T11:53:37.912Z,35.83
2023-02-11T11:58:36.395Z,35.31
2023-02-11T12:01:43.375Z,34.51
2023-02-11T12:04:42.093Z,35.00
2023-02-11T12:07:38.943Z,34.98
2023-02-11T12:10:16.636Z,34.32
2023-02-11T12:13:20.318Z,33.93
2023-02-11T12:16:02.081Z,34.27
2023-02-11T12:18:49.681Z,34.06
2023-02-11T12:21:29.441Z,33.23
2023-02-11T12:24:02.556Z,33.37
2023-02-11T12:26:56.424Z,33.15
2023-02-11T12:29:40.560Z,32.61
2023-02-11T12:32:21.972Z,32.74
2023-02-11T12:35:22.777Z,32.92
2023-02-11T12:38:15.929Z,32.19
2023-02-11T12:40:51.123Z,32.65
2023-02-11T12:43:18.140Z,31.84
2023-02-11T12:46:21.997Z,32.01
2023-02-11T12:49:10.150Z,32.03
2023-02-11T12:51:54.221Z,31.53
2023-02-11T12:54:30.203Z,31.15
2023-02-11T12:57:03.247Z,31.03
2023-02-11T12:59:34.865Z,30.91
2023-02-11T13:02:11.813Z,30.60
2023-02-11T13:04:47.036Z,30.33
2023-02-11T13:07:29.833Z,30.60
2023-02-11T13:10:25.270Z,30.32
2023-02-11T13:13:12.931Z,30.16
2023-02-11T13:15:46.067Z,29.63
2023-02-11T13:18:39.054Z,29.62
2023-02-11T13:21:20.585Z,29.46
2023-02-11T13:23:59.944Z,28.89
2023-02-11T13:26:36.658Z,28.87
2023-02-11T13:29:05.873Z,28.81
2023-02-11T13:31:38.274Z,29.02
2023-02-11T13:34:23.613Z,28.79
2023-02-11T13:36:59.667Z,28.98
2023-02-11T13:39:31.171Z,28.20
2023-02-11T13:42:04.403Z,28.29
2023-02-11T13:44:34.841Z,28.26
2023-02-11T13:47:05.987Z,27.97
2023-02-11T13:49:40.875Z,27.76
2023-02-11T13:52:18.770Z,28.15
2023-02-11T13:54:52.901Z,28.61
2023-02-11T13:57:28.217Z,28.36
2023-02-11T13:59:59.135Z,29.10
2023-02-11T14:02:51.358Z,28.83
2023-02-11T14:05:44.797Z,28.71
2023-02-11T14:08:39.511Z,28.99
2023-02-11T14:11:14.419Z,29.57
2023-02-11T14:13:49.361Z,29.43
2023-02-11T14:16:36.457Z,29.56
2023-02-11T14:19:14.222Z,29.35
2023-02-11T14:21:49.377Z,29.63
2023-02-11T14:24:18.516Z,29.67
2023-02-11T14:27:05.186Z,29.85
2023-02-11T14:29:46.106Z,29.79
2023-02-11T14:32:32.028Z,30.31
2023-02-11T14:35:02.570Z,30.13
2023-02-11T14:38:28.879Z,29.70
2023-02-11T14:41:05.951Z,30.22
2023-02-11T14:43:40.543Z,30.22
2023-02-11T14:46:10.860Z,29.48
2023-02-11T14:48:43.228Z,29.79
2023-02-11T14:51:32.897Z,30.33
2023-02-11T14:54:18.797Z,29.94
2023-02-11T14:56:46.946Z,30.37
2023-02-11T14:59:25.462Z,30.23
2023-02-11T15:01:58.622Z,29.89
2023-02-11T15:04:31.727Z,30.47
2023-02-11T15:07:08.416Z,30.04
2023-02-11T15:09:44.528Z,29.99
2023-02-11T15:12:31.480Z,30.24
2023-02-11T15:15:02.804Z,30.09
2023-02-11T15:17:32.404Z,30.12
2023-02-11T15:20:03.797Z,30.30
2023-02-11T15:22:36.894Z,30.48
2023-02-11T15:25:17.324Z,29.81
2023-02-11T15:27:52.445Z,30.20
2023-02-11T15:30:21.818Z,30.62
2023-02-11T15:33:00.119Z,30.37
2023-02-11T15:35:36.820Z,30.28
2023-02-11T15:38:15.575Z,30.06
2023-02-11T15:40:57.078Z,30.24
2023-02-11T15:43:39.894Z,30.29
2023-02-11T15:46:06.791Z,30.29
2023-02-11T15:48:35.804Z,30.02
2023-02-11T15:51:11.269Z,29.96
2023-02-11T15:53:45.601Z,30.76
2023-02-11T15:56:25.348Z,30.15
2023-02-11T15:58:56.998Z,30.75
2023-02-11T16:01:40.195Z,30.19
2023-02-11T16:04:14.870Z,30.29
2023-02-11T16:06:47.716Z,30.18
2023-02-11T16:09:17.525Z,27.09
2023-02-11T16:11:49.997Z,25.27
2023-02-11T16:14:24.656Z,24.92
2023-02-11T16:17:04.532Z,25.16
2023-02-11T16:19:35.983Z,26.57
2023-02-11T16:22:11.313Z,26.97
2023-02-11T16:24:39.508Z,27.41
2023-02-11T16:27:25.792Z,27.19
2023-02-11T16:29:52.750Z,27.55
2023-02-11T16:32:23.486Z,27.88
2023-02-11T16:34:53.475Z,27.61
2023-02-11T16:37:24.795Z,28.78
2023-02-11T16:39:58.198Z,29.94
2023-02-11T16:42:27.276Z,31.12
2023-02-11T16:44:54.034Z,32.81
2023-02-11T16:47:26.490Z,35.43
2023-02-11T16:49:54.205Z,34.70
2023-02-11T16:52:22.009Z,35.46
2023-02-11T16:54:51.692Z,35.61
2023-02-11T16:57:19.721Z,36.26
2023-02-11T16:59:47.084Z,36.18
2023-02-11T17:02:24.121Z,36.54
2023-02-11T17:04:55.812Z,36.97
2023-02-11T17:07:22.522Z,37.33
2023-02-11T17:09:52.374Z,37.67
2023-02-11T17:12:21.643Z,37.45
2023-02-11T17:14:50.635Z,37.88
2023-02-11T17:17:19.640Z,38.20
2023-02-11T17:19:54.175Z,38.51
2023-02-11T17:22:25.646Z,38.29
2023-02-11T17:25:01.111Z,38.35
2023-02-11T17:27:34.489Z,38.60
2023-02-11T17:30:06.255Z,38.33
2023-02-11T17:32:35.726Z,38.67
2023-02-11T17:35:05.782Z,38.84
2023-02-11T17:37:36.930Z,39.04
2023-02-11T17:40:03.812Z,38.94
2023-02-11T17:42:35.252Z,39.09
2023-02-11T17:45:07.409Z,38.94
2023-02-11T17:47:34.319Z,39.08
2023-02-11T17:50:01.469Z,39.23
2023-02-11T17:52:30.602Z,39.59
2023-02-11T17:54:58.193Z,39.31
2023-02-11T17:57:30.150Z,39.61
2023-02-11T17:59:57.312Z,39.70
2023-02-11T18:02:26.350Z,39.78
2023-02-11T18:04:58.894Z,39.80
2023-02-11T18:07:26.624Z,39.85
2023-02-11T18:09:55.709Z,40.19
2023-02-11T18:12:26.332Z,40.34
2023-02-11T18:14:59.791Z,40.13
2023-02-11T18:17:29.309Z,40.00
2023-02-11T18:19:59.586Z,39.98
2023-02-11T18:22:36.581Z,40.18
2023-02-11T18:25:03.514Z,40.22
2023-02-11T18:27:30.257Z,40.28
2023-02-11T18:29:56.929Z,40.28
2023-02-11T18:32:27.986Z,40.38
2023-02-11T18:34:54.714Z,40.72
2023-02-11T18:37:23.857Z,40.43
2023-02-11T18:39:52.867Z,40.36
2023-02-11T18:42:25.118Z,40.69
2023-02-11T18:44:54.917Z,40.68
2023-02-11T18:47:23.867Z,40.99
2023-02-11T18:49:50.682Z,40.83
2023-02-11T18:52:21.837Z,40.88
2023-02-11T18:54:55.926Z,40.84
2023-02-11T18:57:27.721Z,40.92
2023-02-11T18:59:54.493Z,40.81
2023-02-11T19:02:21.323Z,40.85
2023-02-11T19:04:51.379Z,41.14
2023-02-11T19:07:18.145Z,41.15
2023-02-11T19:09:49.626Z,41.15
2023-02-11T19:12:21.286Z,41.17
2023-02-11T19:14:55.276Z,41.15
2023-02-11T19:17:26.697Z,41.32
2023-02-11T19:19:58.193Z,41.20
2023-02-11T19:22:27.005Z,41.00
2023-02-11T19:24:53.898Z,41.24
2023-02-11T19:27:20.685Z,41.21
2023-02-11T19:29:52.320Z,41.63
2023-02-11T19:32:21.607Z,41.19
2023-02-11T19:34:48.505Z,41.45
2023-02-11T19:37:22.325Z,41.44
2023-02-11T19:39:53.764Z,41.49
2023-02-11T19:42:27.787Z,41.54
2023-02-11T19:44:54.505Z,41.50
2023-02-11T19:47:27.630Z,41.72
2023-02-11T19:49:55.223Z,41.55
2023-02-11T19:52:29.220Z,41.65
2023-02-11T19:54:58.857Z,41.76
2023-02-11T19:57:29.982Z,42.01
2023-02-11T20:00:01.624Z,41.70
2023-02-11T20:02:31.310Z,41.66
2023-02-11T20:05:04.012Z,41.70
2023-02-11T20:07:35.552Z,41.75
2023-02-11T20:10:07.663Z,41.83
2023-02-11T20:12:39.238Z,41.61
2023-02-11T20:15:13.828Z,41.92
2023-02-11T20:17:45.128Z,41.86
2023-02-11T20:20:13.013Z,41.83
2023-02-11T20:22:39.735Z,41.95
2023-02-11T20:25:06.946Z,41.94
2023-02-11T20:27:33.768Z,41.97
2023-02-11T20:30:03.492Z,41.87
2023-02-11T20:32:32.825Z,42.03
2023-02-11T20:35:02.141Z,41.96
2023-02-11T20:37:33.669Z,42.06
2023-02-11T20:40:03.674Z,42.25
2023-02-11T20:42:32.899Z,42.21
2023-02-11T20:45:02.424Z,41.89
2023-02-11T20:47:31.760Z,42.23
2023-02-11T20:49:58.480Z,42.14
2023-02-11T20:52:29.782Z,42.33
2023-02-11T20:54:59.722Z,42.25
2023-02-11T20:57:35.148Z,42.30
2023-02-11T21:00:05.275Z,42.48
2023-02-11T21:02:34.364Z,42.21
2023-02-11T21:05:03.570Z,42.25
2023-02-11T21:07:31.454Z,42.50
2023-02-11T21:09:58.296Z,42.39
2023-02-11T21:12:25.146Z,42.28
2023-02-11T21:14:51.911Z,42.38
2023-02-11T21:17:18.942Z,42.20
2023-02-11T21:19:48.327Z,42.53
2023-02-11T21:22:17.516Z,42.40
2023-02-11T21:24:46.537Z,42.38
2023-02-11T21:27:13.381Z,42.53
2023-02-11T21:29:52.712Z,42.42
2023-02-11T21:32:22.973Z,42.50
2023-02-11T21:34:54.463Z,42.65
2023-02-11T21:37:23.320Z,42.63
2023-02-11T21:39:50.132Z,42.57
2023-02-11T21:42:21.755Z,42.47
2023-02-11T21:44:48.480Z,42.67
2023-02-11T21:47:15.181Z,42.61
2023-02-11T21:49:41.904Z,42.51
2023-02-11T21:52:13.415Z,42.45
2023-02-11T21:54:40.232Z,42.75
2023-02-11T21:57:09.196Z,42.57
2023-02-11T21:59:43.292Z,42.71
2023-02-11T22:02:16.352Z,42.54
2023-02-11T22:04:43.293Z,42.65
2023-02-11T22:07:10.037Z,42.64
2023-02-11T22:09:43.801Z,42.68
2023-02-11T22:12:12.698Z,42.59
2023-02-11T22:14:39.412Z,42.91
2023-02-11T22:17:06.146Z,42.60
2023-02-11T22:19:40.260Z,42.78
2023-02-11T22:22:08.157Z,42.85
2023-02-11T22:24:36.160Z,42.57
2023-02-11T22:27:07.437Z,42.77
2023-02-11T22:29:42.138Z,42.83
2023-02-11T22:32:14.197Z,42.90
2023-02-11T22:34:43.527Z,42.85
2023-02-11T22:37:12.420Z,42.78
2023-02-11T22:39:43.928Z,42.87
2023-02-11T22:42:12.949Z,42.79
2023-02-11T22:44:39.602Z,43.03
2023-02-11T22:47:13.644Z,43.00
2023-02-11T22:49:42.715Z,42.88
2023-02-11T22:52:12.106Z,42.94
2023-02-11T22:54:41.507Z,43.00
2023-02-11T22:57:08.472Z,42.89
2023-02-11T22:59:35.174Z,43.01
2023-02-11T23:02:04.522Z,42.86
2023-02-11T23:04:31.290Z,42.88
2023-02-11T23:06:57.972Z,42.74
2023-02-11T23:09:26.948Z,42.78
2023-02-11T23:11:54.499Z,42.95
2023-02-11T23:14:24.360Z,42.87
2023-02-11T23:16:55.869Z,42.92
2023-02-11T23:19:27.449Z,43.06
2023-02-11T23:21:56.466Z,43.19
2023-02-11T23:24:25.657Z,42.91
2023-02-11T23:26:57.000Z,43.09
2023-02-11T23:29:26.292Z,43.12
2023-02-11T23:31:58.952Z,43.14
2023-02-11T23:34:25.822Z,43.14
2023-02-11T23:36:55.914Z,43.05
2023-02-11T23:39:25.344Z,42.97
2023-02-11T23:41:58.898Z,43.13
2023-02-11T23:44:26.674Z,43.00
2023-02-11T23:46:55.654Z,43.02
2023-02-11T23:49:27.136Z,42.94
2023-02-11T23:51:53.874Z,42.93
2023-02-11T23:54:22.846Z,43.22
2023-02-11T23:56:56.701Z,43.09
2023-02-11T23:59:23.492Z,43.28
